createdAt,value
2023-02-11T00:01:14.913Z,5.80
2023-02-11T00:03:41.650Z,4.72
2023-02-11T00:06:11.259Z,5.32
2023-02-11T00:08:38.264Z,5.95
2023-02-11T00:11:05.276Z,5.35
2023-02-11T00:13:32.024Z,6.43
2023-02-11T00:15:58.751Z,5.75
2023-02-11T00:18:25.483Z,6.47
2023-02-11T00:20:52.142Z,6.22
2023-02-11T00:23:18.818Z,6.40
2023-02-11T00:25:45.766Z,6.05
2023-02-11T00:28:12.609Z,6.85
2023-02-11T00:30:39.470Z,5.97
2023-02-11T00:33:06.211Z,5.78
2023-02-11T00:35:32.997Z,6.10
2023-02-11T00:37:59.783Z,6.38
2023-02-11T00:40:26.433Z,5.85
2023-02-11T00:42:53.133Z,5.43
2023-02-11T00:45:21.224Z,5.70
2023-02-11T00:47:48.126Z,5.10
2023-02-11T00:50:14.834Z,5.35
2023-02-11T00:52:41.545Z,5.60
2023-02-11T00:55:08.448Z,4.90
2023-02-11T00:57:35.454Z,5.13
2023-02-11T01:00:02.399Z,6.07
2023-02-11T01:02:29.070Z,5.65
2023-02-11T01:04:55.810Z,5.53
2023-02-11T01:07:23.173Z,5.00
2023-02-11T01:09:49.909Z,6.28
2023-02-11T01:12:16.604Z,5.70
2023-02-11T01:14:43.480Z,5.75
2023-02-11T01:17:10.313Z,6.40
2023-02-11T01:19:37.936Z,5.45
2023-02-11T01:22:04.876Z,5.53
2023-02-11T01:24:31.620Z,6.13
2023-02-11T01:26:58.425Z,6.32
2023-02-11T01:29:25.176Z,5.78
2023-02-11T01:31:52.465Z,6.50
2023-02-11T01:34:19.201Z,6.85
2023-02-11T01:36:45.978Z,5.85
2023-02-11T01:39:12.772Z,7.30
2023-02-11T01:41:39.480Z,6.70
2023-02-11T01:44:41.563Z,7.55
2023-02-11T01:47:08.400Z,6.53
2023-02-11T01:49:37.978Z,8.13
2023-02-11T01:52:12.437Z,7.15
2023-02-11T01:55:02.524Z,7.70
2023-02-11T01:57:30.355Z,7.20
2023-02-11T02:00:24.628Z,7.05
2023-02-11T02:02:57.182Z,7.55
2023-02-11T02:05:45.389Z,7.07
2023-02-11T02:08:48.008Z,7.50
2023-02-11T02:11:14.707Z,7.85
2023-02-11T02:13:41.687Z,6.93
2023-02-11T02:16:14.818Z,8.05
2023-02-11T02:19:02.802Z,7.63
2023-02-11T02:22:07.130Z,7.50
2023-02-11T02:24:59.929Z,8.77
2023-02-11T02:27:45.441Z,7.10
2023-02-11T02:30:39.794Z,7.38
2023-02-11T02:33:22.462Z,7.40
2023-02-11T02:36:05.667Z,7.07
2023-02-11T02:38:58.547Z,7.53
2023-02-11T02:41:32.654Z,7.13
2023-02-11T02:46:31.137Z,7.03
2023-02-11T02:48:58.106Z,7.47
2023-02-11T02:51:27.729Z,6.93
2023-02-11T02:54:00.665Z,7.57
2023-02-11T02:56:45.323Z,7.50
2023-02-11T02:59:14.289Z,8.15
2023-02-11T03:01:56.182Z,7.65
2023-02-11T03:04:42.015Z,8.18
2023-02-11T03:07:35.797Z,8.30
2023-02-11T03:10:14.200Z,7.97
2023-02-11T03:12:40.917Z,8.60
2023-02-11T03:15:08.114Z,7.72
2023-02-11T03:17:35.372Z,9.95
2023-02-11T03:20:02.975Z,7.97
2023-02-11T03:22:39.938Z,8.70
2023-02-11T03:25:06.887Z,8.38
2023-02-11T03:27:39.000Z,8.63
2023-02-11T03:30:20.695Z,7.80
2023-02-11T03:32:52.414Z,9.35
2023-02-11T03:35:32.790Z,8.23
2023-02-11T03:38:30.911Z,8.02
2023-02-11T03:40:57.783Z,7.20
2023-02-11T03:43:33.662Z,8.40
2023-02-11T03:46:00.513Z,8.75
2023-02-11T03:48:35.112Z,9.10
2023-02-11T03:51:02.903Z,9.30
2023-02-11T03:53:29.598Z,9.65
2023-02-11T03:55:57.045Z,10.38
2023-02-11T03:58:25.950Z,9.30
2023-02-11T04:00:52.784Z,9.57
2023-02-11T04:03:19.808Z,8.70
2023-02-11T04:05:46.704Z,8.35
2023-02-11T04:08:13.454Z,8.88
2023-02-11T04:10:40.126Z,8.70
2023-02-11T04:13:06.834Z,9.05
2023-02-11T04:15:33.526Z,8.43
2023-02-11T04:18:00.207Z,9.15
2023-02-11T04:20:26.860Z,8.45
2023-02-11T04:22:53.654Z,9.23
2023-02-11T04:25:20.450Z,8.50
2023-02-11T04:27:47.123Z,8.57
2023-02-11T04:30:14.178Z,8.93
2023-02-11T04:32:40.947Z,8.82
2023-02-11T04:35:08.008Z,8.77
2023-02-11T04:37:35.604Z,8.38
2023-02-11T04:40:02.347Z,8.73
2023-02-11T04:42:29.147Z,8.10
2023-02-11T04:44:55.831Z,8.65
2023-02-11T04:47:22.544Z,7.45
2023-02-11T04:49:49.216Z,7.57
2023-02-11T04:52:15.968Z,8.27
2023-02-11T04:54:42.630Z,7.53
2023-02-11T04:57:09.330Z,7.18
2023-02-11T04:59:36.075Z,6.95
2023-02-11T05:02:04.117Z,7.18
2023-02-11T05:04:30.859Z,8.15
2023-02-11T05:06:58.709Z,7.72
2023-02-11T05:09:25.577Z,7.65
2023-02-11T05:11:52.367Z,6.93
2023-02-11T05:14:19.177Z,8.43
2023-02-11T05:16:46.034Z,6.82
2023-02-11T05:19:12.748Z,7.05
2023-02-11T05:21:40.124Z,6.15
2023-02-11T05:24:10.540Z,6.60
2023-02-11T05:26:37.247Z,6.45
2023-02-11T05:29:03.931Z,6.00
2023-02-11T05:31:30.666Z,6.53
2023-02-11T05:33:57.338Z,6.00
2023-02-11T05:36:24.084Z,5.95
2023-02-11T05:38:50.980Z,8.88
2023-02-11T05:41:17.650Z,5.47
2023-02-11T05:43:44.396Z,6.13
2023-02-11T05:46:11.098Z,5.72
2023-02-11T05:48:37.851Z,5.40
2023-02-11T05:51:04.736Z,5.68
2023-02-11T05:53:31.392Z,6.53
2023-02-11T05:55:58.149Z,5.28
2023-02-11T05:58:24.807Z,5.35
2023-02-11T06:00:51.474Z,5.10
2023-02-11T06:03:18.219Z,6.18
2023-02-11T06:05:46.185Z,4.93
2023-02-11T06:08:12.971Z,4.97
2023-02-11T06:10:42.415Z,5.15
2023-02-11T06:13:09.134Z,4.43
2023-02-11T06:15:35.853Z,5.68
2023-02-11T06:18:02.554Z,5.63
2023-02-11T06:20:29.762Z,4.72
2023-02-11T06:22:56.450Z,5.00
2023-02-11T06:25:23.147Z,4.97
2023-02-11T06:27:49.868Z,5.28
2023-02-11T06:30:16.573Z,5.10
2023-02-11T06:32:45.095Z,5.18
2023-02-11T06:35:13.269Z,5.05
2023-02-11T06:37:40.940Z,5.32
2023-02-11T06:40:07.981Z,5.50
2023-02-11T06:42:36.130Z,5.28
2023-02-11T06:45:06.086Z,5.32
2023-02-11T06:47:32.971Z,5.30
2023-02-11T06:49:59.848Z,5.10
2023-02-11T06:52:26.603Z,4.57
2023-02-11T06:54:53.314Z,5.78
2023-02-11T06:57:20.117Z,4.53
2023-02-11T06:59:46.848Z,5.00
2023-02-11T07:02:13.615Z,4.45
2023-02-11T07:04:40.361Z,5.18
2023-02-11T07:07:07.186Z,5.20
2023-02-11T07:09:33.953Z,4.82
2023-02-11T07:12:00.713Z,4.90
2023-02-11T07:14:27.366Z,5.18
2023-02-11T07:16:54.175Z,4.15
2023-02-11T07:19:21.042Z,4.80
2023-02-11T07:21:48.760Z,4.68
2023-02-11T07:24:15.561Z,4.13
2023-02-11T07:26:42.282Z,4.13
2023-02-11T07:29:08.947Z,4.28
2023-02-11T07:31:35.802Z,4.32
2023-02-11T07:34:02.974Z,4.07
2023-02-11T07:36:30.489Z,4.40
2023-02-11T07:38:57.300Z,4.85
2023-02-11T07:41:24.537Z,3.53
2023-02-11T07:43:51.587Z,4.55
2023-02-11T07:46:21.116Z,3.85
2023-02-11T07:48:48.094Z,3.42
2023-02-11T07:51:18.839Z,3.72
2023-02-11T07:53:45.954Z,3.35
2023-02-11T07:56:13.276Z,3.75
2023-02-11T07:58:42.107Z,3.65
2023-02-11T08:01:17.344Z,3.72
2023-02-11T08:03:44.261Z,3.67
2023-02-11T08:06:12.687Z,3.72
2023-02-11T08:08:39.665Z,3.25
2023-02-11T08:11:10.700Z,3.40
2023-02-11T08:13:37.584Z,3.65
2023-02-11T08:16:05.119Z,2.80
2023-02-11T08:18:32.322Z,3.97
2023-02-11T08:21:08.875Z,2.92
2023-02-11T08:23:39.420Z,2.67
2023-02-11T08:26:07.734Z,2.22
2023-02-11T08:28:38.356Z,2.60
2023-02-11T08:31:06.950Z,3.13
2023-02-11T08:33:34.451Z,3.60
2023-02-11T08:36:01.880Z,2.60
2023-02-11T08:38:28.545Z,2.90
2023-02-11T08:40:55.262Z,2.50
2023-02-11T08:43:23.257Z,2.53
2023-02-11T08:45:50.386Z,2.45
2023-02-11T08:48:17.366Z,2.28
2023-02-11T08:50:44.087Z,1.92
2023-02-11T08:53:10.828Z,2.03
2023-02-11T08:55:37.475Z,1.67
2023-02-11T08:58:04.246Z,1.90
2023-02-11T09:00:31.071Z,2.40
2023-02-11T09:02:57.742Z,2.72
2023-02-11T09:05:24.599Z,2.33
2023-02-11T09:07:51.328Z,2.63
2023-02-11T09:10:18.170Z,2.10
2023-02-11T09:12:44.855Z,1.77
2023-02-11T09:15:11.520Z,1.90
2023-02-11T09:17:38.234Z,2.17
2023-02-11T09:20:05.338Z,2.30
2023-02-11T09:22:32.019Z,2.53
2023-02-11T09:24:58.833Z,2.20
2023-02-11T09:27:25.553Z,1.70
2023-02-11T09:29:52.225Z,2.08
2023-02-11T09:32:19.091Z,2.20
2023-02-11T09:34:45.738Z,2.03
2023-02-11T09:37:12.531Z,1.90
2023-02-11T09:39:39.244Z,2.35
2023-02-11T09:42:32.743Z,2.05
2023-02-11T09:45:01.233Z,1.50
2023-02-11T09:47:33.253Z,1.73
2023-02-11T09:50:05.960Z,1.70
2023-02-11T09:52:41.767Z,1.80
2023-02-11T09:55:22.792Z,2.33
2023-02-11T09:57:49.610Z,1.70
2023-02-11T10:00:19.612Z,1.20
2023-02-11T10:03:08.289Z,2.83
2023-02-11T10:06:07.378Z,1.27
2023-02-11T10:08:40.752Z,1.92
2023-02-11T10:11:33.473Z,1.27
2023-02-11T10:14:37.065Z,1.35
2023-02-11T10:17:29.937Z,1.70
2023-02-11T10:20:17.215Z,1.80
2023-02-11T10:23:03.876Z,1.20
2023-02-11T10:25:45.228Z,2.05
2023-02-11T10:28:17.623Z,2.00
2023-02-11T10:30:53.107Z,1.83
2023-02-11T10:33:32.620Z,1.20
2023-02-11T10:35:59.545Z,1.40
2023-02-11T10:38:26.663Z,2.03
2023-02-11T10:40:53.584Z,1.77
2023-02-11T10:43:23.055Z,1.42
2023-02-11T10:45:51.509Z,1.15
2023-02-11T10:48:51.464Z,1.88
2023-02-11T10:51:33.530Z,3.92
2023-02-11T10:54:04.565Z,1.58
2023-02-11T10:56:58.880Z,1.55
2023-02-11T10:59:31.255Z,1.65
2023-02-11T11:02:02.606Z,1.10
2023-02-11T11:04:42.653Z,1.30
2023-02-11T11:07:20.672Z,2.47
2023-02-11T11:09:55.862Z,2.53
2023-02-11T11:12:31.519Z,2.15
2023-02-11T11:15:00.416Z,1.65
2023-02-11T11:17:30.510Z,1.63
2023-02-11T11:20:24.111Z,1.60
2023-02-11T11:22:52.028Z,1.35
2023-02-11T11:25:32.160Z,1.73
2023-02-11T11:28:00.252Z,1.83
2023-02-11T11:30:42.586Z,1.40
2023-02-11T11:33:24.868Z,1.63
2023-02-11T11:36:18.673Z,1.83
2023-02-11T11:39:22.448Z,2.72
2023-02-11T11:42:25.640Z,1.45
2023-02-11T11:45:00.314Z,1.85
2023-02-11T11:47:53.108Z,2.92
2023-02-11T11:50:36.581Z,1.77
2023-02-11T11:53:20.714Z,1.77
2023-02-11T11:55:53.507Z,2.83
2023-02-11T11:58:23.121Z,1.92
2023-02-11T12:01:01.788Z,1.92
2023-02-11T12:04:06.272Z,2.53
2023-02-11T12:06:51.982Z,1.95
2023-02-11T12:09:50.762Z,1.80
2023-02-11T12:12:40.379Z,1.88
2023-02-11T12:15:25.507Z,1.38
2023-02-11T12:18:25.646Z,2.20
2023-02-11T12:21:07.547Z,2.00
2023-02-11T12:23:58.570Z,2.05
2023-02-11T12:26:44.636Z,2.50
2023-02-11T12:29:39.390Z,1.90
2023-02-11T12:32:25.711Z,2.15
2023-02-11T12:34:58.534Z,3.53
2023-02-11T12:37:42.249Z,1.85
2023-02-11T12:40:19.012Z,2.30
2023-02-11T12:43:21.260Z,2.58
2023-02-11T12:45:48.065Z,2.58
2023-02-11T12:48:42.664Z,1.50
2023-02-11T12:53:49.810Z,2.00
2023-02-11T12:56:38.719Z,2.25
2023-02-11T12:59:06.911Z,2.35
2023-02-11T13:01:39.340Z,1.83
2023-02-11T13:04:24.673Z,2.47
2023-02-11T13:06:55.423Z,2.45
2023-02-11T13:09:27.072Z,2.28
2023-02-11T13:11:58.308Z,2.30
2023-02-11T13:14:37.083Z,2.40
2023-02-11T13:17:06.414Z,2.50
2023-02-11T13:19:36.014Z,2.78
2023-02-11T13:22:11.324Z,2.13
2023-02-11T13:24:40.789Z,2.47
2023-02-11T13:27:42.720Z,2.28
2023-02-11T13:30:32.602Z,2.30
2023-02-11T13:33:02.340Z,2.35
2023-02-11T13:35:39.453Z,2.53
2023-02-11T13:38:27.623Z,2.67
2023-02-11T13:41:08.050Z,2.00
2023-02-11T13:43:35.707Z,1.98
2023-02-11T13:46:06.758Z,2.85
2023-02-11T13:48:46.722Z,2.25
2023-02-11T13:51:15.186Z,2.47
2023-02-11T13:53:51.867Z,2.45
2023-02-11T13:56:32.362Z,2.10
2023-02-11T13:59:02.134Z,2.55
2023-02-11T14:02:07.366Z,2.63
2023-02-11T14:04:52.651Z,2.88
2023-02-11T14:07:51.367Z,2.60
2023-02-11T14:10:43.040Z,2.97
2023-02-11T14:13:22.452Z,2.15
2023-02-11T14:15:49.444Z,2.60
2023-02-11T14:18:34.677Z,2.55
2023-02-11T14:21:11.841Z,2.55
2023-02-11T14:23:38.668Z,2.30
2023-02-11T14:26:31.222Z,3.47
2023-02-11T14:29:07.273Z,2.20
2023-02-11T14:31:52.154Z,2.80
2023-02-11T14:34:37.938Z,3.67
2023-02-11T14:37:10.967Z,2.10
2023-02-11T14:40:03.242Z,2.17
2023-02-11T14:42:30.935Z,2.20
2023-02-11T14:45:03.234Z,2.30
2023-02-11T14:47:35.590Z,2.42
2023-02-11T14:50:02.347Z,2.50
2023-02-11T14:52:30.745Z,2.05
2023-02-11T14:55:29.050Z,2.75
2023-02-11T14:58:24.771Z,2.42
2023-02-11T15:00:54.240Z,2.00
2023-02-11T15:03:36.948Z,3.25
2023-02-11T15:06:05.492Z,2.50
2023-02-11T15:08:32.283Z,2.40
2023-02-11T15:10:59.160Z,2.33
2023-02-11T15:13:27.200Z,4.50
2023-02-11T15:15:56.403Z,2.75
2023-02-11T15:18:32.001Z,2.38
2023-02-11T15:20:58.665Z,3.10
2023-02-11T15:23:26.534Z,2.90
2023-02-11T15:25:56.000Z,3.60
2023-02-11T15:28:31.060Z,3.35
2023-02-11T15:31:04.816Z,3.88
2023-02-11T15:33:32.321Z,4.45
2023-02-11T15:36:00.139Z,3.80
2023-02-11T15:38:26.898Z,3.25
2023-02-11T15:41:03.646Z,2.92
2023-02-11T15:43:49.472Z,4.13
2023-02-11T15:46:18.518Z,4.43
2023-02-11T15:48:49.681Z,3.10
2023-02-11T15:51:34.498Z,2.83
2023-02-11T15:54:03.040Z,5.53
2023-02-11T15:56:43.475Z,3.65
2023-02-11T15:59:20.755Z,2.88
2023-02-11T16:01:47.870Z,3.45
2023-02-11T16:04:19.810Z,2.67
2023-02-11T16:06:49.351Z,3.10
2023-02-11T16:09:16.093Z,3.30
2023-02-11T16:11:48.899Z,3.33
2023-02-11T16:14:27.427Z,3.47
2023-02-11T16:17:04.382Z,2.97
2023-02-11T16:19:31.880Z,2.38
2023-02-11T16:21:59.766Z,2.65
2023-02-11T16:24:28.498Z,4.03
2023-02-11T16:26:57.520Z,3.33
2023-02-11T16:29:31.330Z,3.35
2023-02-11T16:32:24.411Z,2.67
2023-02-11T16:34:51.540Z,3.00
2023-02-11T16:37:18.199Z,3.50
2023-02-11T16:39:44.898Z,3.92
2023-02-11T16:42:11.829Z,4.15
2023-02-11T16:44:38.788Z,4.53
2023-02-11T16:47:07.743Z,4.28
2023-02-11T16:49:38.347Z,4.60
2023-02-11T16:52:13.884Z,4.13
2023-02-11T16:54:40.728Z,4.20
2023-02-11T16:57:17.652Z,4.72
2023-02-11T16:59:44.668Z,4.00
2023-02-11T17:02:24.171Z,3.38
2023-02-11T17:04:54.663Z,5.18
2023-02-11T17:07:21.550Z,5.25
2023-02-11T17:09:48.278Z,5.57
2023-02-11T17:12:14.955Z,5.97
2023-02-11T17:14:41.646Z,7.47
2023-02-11T17:17:11.516Z,5.72
2023-02-11T17:19:38.371Z,5.28
2023-02-11T17:22:05.090Z,5.05
2023-02-11T17:24:31.889Z,5.90
2023-02-11T17:26:58.563Z,5.90
2023-02-11T17:29:25.484Z,4.55
2023-02-11T17:31:52.541Z,5.72
2023-02-11T17:34:20.041Z,5.63
2023-02-11T17:36:46.863Z,5.95
2023-02-11T17:39:13.528Z,6.88
2023-02-11T17:41:40.370Z,4.10
2023-02-11T17:44:07.667Z,4.65
2023-02-11T17:46:35.034Z,5.43
2023-02-11T17:49:02.489Z,5.32
2023-02-11T17:51:33.126Z,4.30
2023-02-11T17:54:02.790Z,6.50
2023-02-11T17:56:31.388Z,6.15
2023-02-11T17:58:58.097Z,5.88
2023-02-11T18:01:27.681Z,9.10
2023-02-11T18:03:58.118Z,8.85
2023-02-11T18:06:25.107Z,13.50
2023-02-11T18:08:51.849Z,15.60
2023-02-11T18:11:18.682Z,5.75
2023-02-11T18:13:45.542Z,4.70
2023-02-11T18:16:15.891Z,4.25
2023-02-11T18:18:43.278Z,4.72
2023-02-11T18:21:20.387Z,5.82
2023-02-11T18:23:47.485Z,4.65
2023-02-11T18:26:14.818Z,6.68
2023-02-11T18:28:44.506Z,7.43
2023-02-11T18:31:13.837Z,6.30
2023-02-11T18:33:43.158Z,6.07
2023-02-11T18:36:14.444Z,7.07
2023-02-11T18:38:46.145Z,5.68
2023-02-11T18:41:13.463Z,4.80
2023-02-11T18:43:40.247Z,9.02
2023-02-11T18:46:09.150Z,5.18
2023-02-11T18:48:35.896Z,5.28
2023-02-11T18:51:02.582Z,5.90
2023-02-11T18:53:29.578Z,5.25
2023-02-11T18:55:56.274Z,6.88
2023-02-11T18:58:23.011Z,7.43
2023-02-11T19:00:49.791Z,9.88
2023-02-11T19:03:16.869Z,6.28
2023-02-11T19:05:48.187Z,6.93
2023-02-11T19:08:15.002Z,19.73
2023-02-11T19:10:45.400Z,10.40
2023-02-11T19:13:12.543Z,9.50
2023-02-11T19:15:43.137Z,7.90
2023-02-11T19:18:10.566Z,9.35
2023-02-11T19:20:40.729Z,6.30
2023-02-11T19:23:07.615Z,8.48
2023-02-11T19:25:34.788Z,5.85
2023-02-11T19:28:01.577Z,7.30
2023-02-11T19:30:28.249Z,7.30
2023-02-11T19:32:57.127Z,5.65
2023-02-11T19:35:24.372Z,5.55
2023-02-11T19:37:51.046Z,6.43
2023-02-11T19:40:17.885Z,6.55
2023-02-11T19:42:44.768Z,8.10
2023-02-11T19:45:11.456Z,7.22
2023-02-11T19:47:38.252Z,8.57
2023-02-11T19:50:05.685Z,9.07
2023-02-11T19:52:32.394Z,8.60
2023-02-11T19:54:59.964Z,7.20
2023-02-11T19:57:26.642Z,9.38
2023-02-11T19:59:54.865Z,7.75
2023-02-11T20:02:21.903Z,7.63
2023-02-11T20:04:48.666Z,7.40
2023-02-11T20:07:15.466Z,8.38
2023-02-11T20:09:42.615Z,8.65
2023-02-11T20:12:09.644Z,8.80
2023-02-11T20:14:36.992Z,7.55
2023-02-11T20:17:03.820Z,8.15
2023-02-11T20:19:30.801Z,8.50
2023-02-11T20:21:57.584Z,9.52
2023-02-11T20:24:27.378Z,10.05
2023-02-11T20:26:56.881Z,8.70
2023-02-11T20:29:24.050Z,10.07
2023-02-11T20:31:50.946Z,8.77
2023-02-11T20:34:21.707Z,8.95
2023-02-11T20:36:53.920Z,7.65
2023-02-11T20:39:22.259Z,8.60
2023-02-11T20:41:49.441Z,8.98
2023-02-11T20:44:16.193Z,9.55
2023-02-11T20:46:45.944Z,8.95
2023-02-11T20:49:21.158Z,8.85
2023-02-11T20:51:50.290Z,10.02
2023-02-11T20:54:20.307Z,11.52
2023-02-11T20:56:54.694Z,15.90
2023-02-11T20:59:21.770Z,13.27
2023-02-11T21:01:53.437Z,10.00
2023-02-11T21:04:22.413Z,10.10
2023-02-11T21:06:52.074Z,9.63
2023-02-11T21:09:20.721Z,9.50
2023-02-11T21:11:47.885Z,9.95
2023-02-11T21:14:14.838Z,9.65
2023-02-11T21:16:41.717Z,10.15
2023-02-11T21:19:08.426Z,9.55
2023-02-11T21:21:35.980Z,9.93
2023-02-11T21:24:02.877Z,9.02
2023-02-11T21:26:29.639Z,11.00
2023-02-11T21:28:56.947Z,10.40
2023-02-11T21:31:28.934Z,9.77
2023-02-11T21:34:02.187Z,10.82
2023-02-11T21:36:31.508Z,11.43
2023-02-11T21:38:58.261Z,15.30
2023-02-11T21:41:25.067Z,12.65
2023-02-11T21:43:51.930Z,10.90
2023-02-11T21:46:18.999Z,11.27
2023-02-11T21:48:48.246Z,10.98
2023-02-11T21:51:16.770Z,11.93
2023-02-11T21:53:43.560Z,12.00
2023-02-11T21:56:15.464Z,13.40
2023-02-11T21:58:42.227Z,12.65
2023-02-11T22:01:26.948Z,12.80
2023-02-11T22:03:56.359Z,11.77
2023-02-11T22:06:26.226Z,11.52
2023-02-11T22:08:53.688Z,13.63
2023-02-11T22:11:20.501Z,12.85
2023-02-11T22:13:47.292Z,11.82
2023-02-11T22:16:15.856Z,12.32
2023-02-11T22:18:48.370Z,13.68
2023-02-11T22:21:16.867Z,11.77
2023-02-11T22:23:43.828Z,11.98
2023-02-11T22:26:17.235Z,11.13
2023-02-11T22:28:44.163Z,11.38
2023-02-11T22:31:22.262Z,12.20
2023-02-11T22:33:49.262Z,13.95
2023-02-11T22:36:18.276Z,14.43
2023-02-11T22:38:45.147Z,12.52
2023-02-11T22:41:12.456Z,13.05
2023-02-11T22:43:39.255Z,13.82
2023-02-11T22:46:06.781Z,14.43
2023-02-11T22:48:34.314Z,13.07
2023-02-11T22:51:08.470Z,13.52
2023-02-11T22:53:35.181Z,13.27
2023-02-11T22:56:07.153Z,14.57
2023-02-11T22:58:34.590Z,13.48
2023-02-11T23:01:01.544Z,12.90
2023-02-11T23:03:28.688Z,12.57
2023-02-11T23:05:56.221Z,12.55
2023-02-11T23:08:23.229Z,13.20
2023-02-11T23:10:49.918Z,12.60
2023-02-11T23:13:16.620Z,11.35
2023-02-11T23:15:44.274Z,13.25
2023-02-11T23:18:11.344Z,12.02
2023-02-11T23:20:39.027Z,11.23
2023-02-11T23:23:05.902Z,11.82
2023-02-11T23:25:33.204Z,12.10
2023-02-11T23:28:00.536Z,12.40
2023-02-11T23:30:27.969Z,11.20
2023-02-11T23:32:54.750Z,11.88
2023-02-11T23:35:24.830Z,11.93
2023-02-11T23:37:52.319Z,13.15
2023-02-11T23:40:19.782Z,11.75
2023-02-11T23:42:47.633Z,12.32
2023-02-11T23:45:14.517Z,12.73
2023-02-11T23:47:41.753Z,11.57
2023-02-11T23:50:09.251Z,11.88
2023-02-11T23:52:35.999Z,13.45
2023-02-11T23:55:02.723Z,11.00
2023-02-11T23:57:31.303Z,11.75
2023-02-11T23:59:57.974Z,12.20
